createdAt,value
2022-12-08T00:02:05.241Z,15.20
2022-12-08T00:04:54.888Z,10.17
2022-12-08T00:07:40.481Z,10.77
2022-12-08T00:10:32.308Z,8.80
2022-12-08T00:12:56.100Z,9.00
2022-12-08T00:15:23.059Z,10.50
2022-12-08T00:17:52.601Z,8.60
2022-12-08T00:20:19.727Z,7.97
2022-12-08T00:22:49.415Z,12.50
2022-12-08T00:25:23.968Z,6.13
2022-12-08T00:27:50.887Z,9.60
2022-12-08T00:30:17.905Z,9.43
2022-12-08T00:32:45.009Z,8.53
2022-12-08T00:35:12.020Z,9.60
2022-12-08T00:37:43.691Z,11.98
2022-12-08T00:40:15.389Z,10.33
2022-12-08T00:42:42.635Z,9.07
2022-12-08T00:45:10.256Z,7.17
2022-12-08T00:47:37.346Z,7.20
2022-12-08T00:50:05.780Z,9.47
2022-12-08T00:52:32.909Z,7.10
2022-12-08T00:55:02.433Z,7.90
2022-12-08T00:57:32.419Z,6.30
2022-12-08T00:59:59.658Z,8.57
2022-12-08T01:02:26.751Z,6.67
2022-12-08T01:04:57.012Z,6.13
2022-12-08T01:07:25.211Z,7.70
2022-12-08T01:09:58.078Z,7.27
2022-12-08T01:12:30.449Z,7.60
2022-12-08T01:15:02.082Z,8.70
2022-12-08T01:17:29.606Z,6.35
2022-12-08T01:19:58.362Z,6.60
2022-12-08T01:22:28.224Z,5.03
2022-12-08T01:25:05.053Z,7.03
2022-12-08T01:27:34.570Z,10.90
2022-12-08T01:30:07.211Z,6.28
2022-12-08T01:32:34.569Z,7.80
2022-12-08T01:35:02.001Z,6.70
2022-12-08T01:37:30.143Z,13.13
2022-12-08T01:40:03.550Z,9.20
2022-12-08T01:42:35.264Z,8.10
2022-12-08T01:45:06.077Z,7.50
2022-12-08T01:47:44.185Z,7.30
2022-12-08T01:50:15.971Z,5.93
2022-12-08T01:53:17.230Z,11.50
2022-12-08T01:55:50.915Z,8.33
2022-12-08T01:58:32.209Z,9.30
2022-12-08T02:00:59.387Z,10.83
2022-12-08T02:04:06.373Z,8.90
2022-12-08T02:06:39.802Z,8.57
2022-12-08T02:09:09.686Z,8.30
2022-12-08T02:11:39.612Z,9.77
2022-12-08T02:14:09.049Z,6.97
2022-12-08T02:16:45.094Z,8.00
2022-12-08T02:20:01.378Z,10.05
2022-12-08T02:22:59.163Z,6.80
2022-12-08T02:26:20.533Z,6.50
2022-12-08T02:29:44.563Z,8.97
2022-12-08T02:32:39.320Z,7.15
2022-12-08T02:35:43.517Z,8.07
2022-12-08T02:38:19.237Z,7.05
2022-12-08T02:41:30.185Z,7.25
2022-12-08T02:44:28.106Z,7.13
2022-12-08T02:47:14.196Z,9.73
2022-12-08T02:49:48.730Z,9.48
2022-12-08T02:52:18.692Z,6.93
2022-12-08T02:55:02.352Z,7.88
2022-12-08T02:58:24.270Z,7.88
2022-12-08T03:01:41.737Z,8.55
2022-12-08T03:04:44.627Z,9.18
2022-12-08T03:07:29.333Z,6.03
2022-12-08T03:10:21.458Z,6.47
2022-12-08T03:13:01.689Z,6.80
2022-12-08T03:15:33.205Z,6.47
2022-12-08T03:18:01.261Z,11.07
2022-12-08T03:20:36.671Z,7.20
2022-12-08T03:23:10.739Z,6.43
2022-12-08T03:26:08.364Z,5.37
2022-12-08T03:28:35.554Z,4.40
2022-12-08T03:31:14.618Z,7.07
2022-12-08T03:33:54.392Z,4.47
2022-12-08T03:36:23.769Z,3.27
2022-12-08T03:38:57.339Z,4.30
2022-12-08T03:41:29.925Z,4.13
2022-12-08T03:44:06.837Z,3.70
2022-12-08T03:46:42.698Z,3.37
2022-12-08T03:49:09.681Z,2.67
2022-12-08T03:51:39.887Z,3.70
2022-12-08T03:54:09.308Z,3.10
2022-12-08T03:56:41.528Z,2.50
2022-12-08T03:59:11.438Z,2.80
2022-12-08T04:01:42.363Z,2.60
2022-12-08T04:04:12.036Z,3.03
2022-12-08T04:06:39.059Z,3.63
2022-12-08T04:09:06.239Z,3.17
2022-12-08T04:11:35.740Z,3.90
2022-12-08T04:14:03.927Z,4.55
2022-12-08T04:16:35.400Z,4.00
2022-12-08T04:19:02.554Z,4.65
2022-12-08T04:21:32.408Z,3.88
2022-12-08T04:24:01.513Z,3.92
2022-12-08T04:26:31.625Z,4.40
2022-12-08T04:28:58.593Z,3.50
2022-12-08T04:31:28.534Z,3.97
2022-12-08T04:33:55.525Z,3.70
2022-12-08T04:36:25.204Z,6.17
2022-12-08T04:38:57.373Z,3.07
2022-12-08T04:41:29.743Z,5.20
2022-12-08T04:43:59.112Z,2.63
2022-12-08T04:46:28.527Z,4.47
2022-12-08T04:48:55.690Z,3.97
2022-12-08T04:51:31.792Z,6.50
2022-12-08T04:54:03.638Z,8.90
2022-12-08T04:56:30.835Z,10.03
2022-12-08T04:58:57.765Z,7.70
2022-12-08T05:01:25.123Z,7.77
2022-12-08T05:03:52.195Z,7.97
2022-12-08T05:06:19.294Z,4.23
2022-12-08T05:08:46.199Z,5.50
2022-12-08T05:11:14.167Z,5.10
2022-12-08T05:13:43.658Z,7.53
2022-12-08T05:16:15.781Z,3.20
2022-12-08T05:18:47.362Z,5.50
2022-12-08T05:21:14.571Z,6.00
2022-12-08T05:23:44.806Z,4.20
2022-12-08T05:26:13.071Z,4.90
2022-12-08T05:28:42.270Z,4.30
2022-12-08T05:31:11.493Z,5.40
2022-12-08T05:33:38.531Z,5.27
2022-12-08T05:36:19.650Z,4.23
2022-12-08T05:38:48.463Z,3.80
2022-12-08T05:41:21.028Z,5.30
2022-12-08T05:43:55.883Z,4.80
2022-12-08T05:46:23.297Z,3.70
2022-12-08T05:48:53.620Z,3.60
2022-12-08T05:51:26.013Z,4.47
2022-12-08T05:53:54.011Z,5.73
2022-12-08T05:56:22.117Z,2.80
2022-12-08T05:58:51.746Z,4.43
2022-12-08T06:01:31.670Z,7.45
2022-12-08T06:04:03.966Z,3.63
2022-12-08T06:06:34.182Z,3.95
2022-12-08T06:09:06.638Z,4.10
2022-12-08T06:11:34.024Z,2.77
2022-12-08T06:14:01.884Z,4.87
2022-12-08T06:16:29.664Z,3.40
2022-12-08T06:18:57.429Z,4.57
2022-12-08T06:21:25.655Z,3.80
2022-12-08T06:23:54.189Z,5.17
2022-12-08T06:26:25.269Z,4.50
2022-12-08T06:28:56.538Z,3.87
2022-12-08T06:31:26.240Z,5.60
2022-12-08T06:33:54.890Z,4.30
2022-12-08T06:36:30.837Z,2.93
2022-12-08T06:38:57.985Z,3.97
2022-12-08T06:41:25.410Z,4.20
2022-12-08T06:43:55.605Z,6.47
2022-12-08T06:46:22.674Z,7.05
2022-12-08T06:48:52.257Z,5.90
2022-12-08T06:51:22.799Z,8.50
2022-12-08T06:53:53.968Z,5.20
2022-12-08T06:56:24.068Z,5.80
2022-12-08T06:58:53.060Z,6.93
2022-12-08T07:01:20.581Z,6.80
2022-12-08T07:03:47.913Z,10.10
2022-12-08T07:06:21.828Z,8.23
2022-12-08T07:08:50.130Z,5.47
2022-12-08T07:11:21.494Z,8.00
2022-12-08T07:13:52.866Z,8.00
2022-12-08T07:16:23.568Z,13.68
2022-12-08T07:18:50.876Z,11.07
2022-12-08T07:21:23.863Z,13.70
2022-12-08T07:23:57.885Z,14.43
2022-12-08T07:26:25.639Z,13.38
2022-12-08T07:28:55.119Z,17.05
2022-12-08T07:31:28.737Z,15.90
2022-12-08T07:33:58.228Z,14.70
2022-12-08T07:36:25.532Z,18.05
2022-12-08T07:38:53.923Z,15.00
2022-12-08T07:41:24.144Z,12.45
2022-12-08T07:43:55.104Z,14.47
2022-12-08T07:46:27.778Z,15.27
2022-12-08T07:48:57.485Z,13.00
2022-12-08T07:51:28.692Z,15.30
2022-12-08T07:53:55.710Z,14.83
2022-12-08T07:56:23.771Z,17.27
2022-12-08T07:58:53.472Z,14.05
2022-12-08T08:01:27.119Z,15.87
2022-12-08T08:03:59.817Z,16.93
2022-12-08T08:06:26.833Z,11.45
2022-12-08T08:08:54.360Z,14.05
2022-12-08T08:11:24.396Z,14.73
2022-12-08T08:13:54.904Z,12.70
2022-12-08T08:16:36.678Z,14.57
2022-12-08T08:19:05.466Z,23.17
2022-12-08T08:21:47.902Z,28.27
2022-12-08T08:24:15.147Z,27.52
2022-12-08T08:26:46.774Z,21.98
2022-12-08T08:29:15.913Z,23.63
2022-12-08T08:31:47.459Z,29.17
2022-12-08T08:34:15.135Z,25.20
2022-12-08T08:36:43.510Z,28.20
2022-12-08T08:39:10.776Z,34.10
2022-12-08T08:41:39.832Z,24.83
2022-12-08T08:44:07.312Z,34.28
2022-12-08T08:46:34.707Z,30.08
2022-12-08T08:49:04.177Z,23.53
2022-12-08T08:51:32.483Z,28.95
2022-12-08T08:54:00.316Z,25.42
2022-12-08T08:56:33.341Z,26.70
2022-12-08T08:59:03.119Z,28.55
2022-12-08T09:01:36.724Z,27.10
2022-12-08T09:04:06.436Z,23.75
2022-12-08T09:06:38.976Z,28.33
2022-12-08T09:09:10.105Z,35.63
2022-12-08T09:11:39.188Z,30.67
2022-12-08T09:14:10.938Z,31.33
2022-12-08T09:16:42.163Z,30.23
2022-12-08T09:19:09.931Z,27.47
2022-12-08T09:21:41.718Z,25.53
2022-12-08T09:24:18.458Z,31.37
2022-12-08T09:26:48.520Z,37.17
2022-12-08T09:29:17.535Z,30.00
2022-12-08T09:31:47.319Z,32.40
2022-12-08T09:34:17.526Z,34.30
2022-12-08T09:36:44.643Z,32.30
2022-12-08T09:39:11.659Z,30.70
2022-12-08T09:42:04.686Z,28.97
2022-12-08T09:44:40.024Z,32.40
2022-12-08T09:47:35.709Z,34.83
2022-12-08T09:50:39.473Z,25.57
2022-12-08T09:53:36.790Z,35.20
2022-12-08T09:56:14.273Z,57.13
2022-12-08T09:59:14.226Z,33.73
2022-12-08T10:01:42.045Z,36.10
2022-12-08T10:04:33.932Z,29.43
2022-12-08T10:08:02.528Z,33.83
2022-12-08T10:10:57.471Z,38.40
2022-12-08T10:14:13.635Z,40.50
2022-12-08T10:16:48.864Z,34.27
2022-12-08T10:19:23.402Z,28.00
2022-12-08T10:21:55.268Z,35.37
2022-12-08T10:24:44.923Z,34.77
2022-12-08T10:27:12.994Z,27.07
2022-12-08T10:29:43.451Z,28.33
2022-12-08T10:32:24.892Z,29.97
2022-12-08T10:35:09.510Z,24.67
2022-12-08T10:37:36.768Z,26.97
2022-12-08T10:40:19.096Z,27.73
2022-12-08T10:42:51.287Z,31.67
2022-12-08T10:45:37.613Z,30.53
2022-12-08T10:48:31.792Z,26.80
2022-12-08T10:51:00.173Z,27.70
2022-12-08T10:53:31.250Z,32.83
2022-12-08T10:56:16.397Z,32.80
2022-12-08T10:58:50.991Z,32.13
2022-12-08T11:01:33.355Z,27.00
2022-12-08T11:04:04.265Z,38.00
2022-12-08T11:06:37.906Z,33.60
2022-12-08T11:09:24.176Z,33.10
2022-12-08T11:11:55.741Z,27.83
2022-12-08T11:14:46.162Z,34.37
2022-12-08T11:17:24.855Z,35.00
2022-12-08T11:20:19.849Z,39.27
2022-12-08T11:22:56.088Z,38.07
2022-12-08T11:25:25.026Z,31.33
2022-12-08T11:28:00.607Z,31.40
2022-12-08T11:30:37.548Z,32.37
2022-12-08T11:33:23.983Z,26.40
2022-12-08T11:36:03.768Z,42.77
2022-12-08T11:38:33.652Z,36.17
2022-12-08T11:41:16.925Z,36.93
2022-12-08T11:44:16.255Z,34.93
2022-12-08T11:46:58.699Z,39.33
2022-12-08T11:49:40.372Z,44.20
2022-12-08T11:52:27.806Z,38.10
2022-12-08T11:55:04.412Z,38.43
2022-12-08T11:57:31.412Z,30.40
2022-12-08T12:00:00.943Z,32.67
2022-12-08T12:02:31.968Z,34.03
2022-12-08T12:05:11.462Z,42.23
2022-12-08T12:08:19.437Z,37.43
2022-12-08T12:11:38.891Z,41.13
2022-12-08T12:14:57.488Z,45.50
2022-12-08T12:17:51.350Z,31.20
2022-12-08T12:20:51.326Z,33.10
2022-12-08T12:23:47.580Z,43.57
2022-12-08T12:26:25.651Z,39.00
2022-12-08T12:29:06.222Z,40.50
2022-12-08T12:31:41.440Z,37.30
2022-12-08T12:34:25.244Z,34.47
2022-12-08T12:37:10.383Z,35.00
2022-12-08T12:39:52.599Z,35.53
2022-12-08T12:42:49.060Z,35.90
2022-12-08T12:45:16.310Z,40.50
2022-12-08T12:47:56.868Z,40.03
2022-12-08T12:50:33.435Z,29.77
2022-12-08T12:53:26.487Z,42.53
2022-12-08T12:56:03.892Z,44.33
2022-12-08T12:58:30.895Z,47.20
2022-12-08T13:01:13.165Z,43.80
2022-12-08T13:04:10.761Z,38.77
2022-12-08T13:06:58.858Z,44.77
2022-12-08T13:09:33.095Z,37.53
2022-12-08T13:12:12.629Z,42.57
2022-12-08T13:14:50.444Z,39.60
2022-12-08T13:17:30.116Z,38.10
2022-12-08T13:20:05.467Z,41.40
2022-12-08T13:23:01.971Z,42.83
2022-12-08T13:25:40.774Z,40.40
2022-12-08T13:28:34.931Z,42.70
2022-12-08T13:31:24.446Z,42.00
2022-12-08T13:33:51.758Z,48.50
2022-12-08T13:36:32.275Z,44.50
2022-12-08T13:39:01.945Z,41.83
2022-12-08T13:41:47.906Z,38.67
2022-12-08T13:47:39.129Z,33.17
2022-12-08T13:59:32.690Z,32.87
2022-12-08T14:02:26.247Z,38.03
2022-12-08T14:05:17.565Z,46.40
2022-12-08T14:07:43.096Z,37.70
2022-12-08T14:10:28.916Z,31.17
2022-12-08T14:13:10.092Z,29.07
2022-12-08T14:15:41.415Z,29.53
2022-12-08T14:18:31.239Z,28.80
2022-12-08T14:21:20.674Z,26.03
2022-12-08T14:23:48.859Z,27.77
2022-12-08T14:26:15.983Z,27.93
2022-12-08T14:28:45.251Z,28.07
2022-12-08T14:31:14.531Z,26.97
2022-12-08T14:33:42.708Z,29.00
2022-12-08T14:36:11.059Z,27.97
2022-12-08T14:38:38.531Z,29.13
2022-12-08T14:41:08.916Z,37.27
2022-12-08T14:43:36.347Z,35.87
2022-12-08T14:46:20.482Z,38.17
2022-12-08T14:48:50.494Z,28.30
2022-12-08T14:51:20.605Z,25.90
2022-12-08T14:54:15.440Z,32.30
2022-12-08T14:56:56.789Z,29.53
2022-12-08T14:59:38.159Z,28.60
2022-12-08T15:02:26.749Z,32.57
2022-12-08T15:05:18.012Z,29.63
2022-12-08T15:07:45.095Z,34.07
2022-12-08T15:10:15.882Z,31.77
2022-12-08T15:13:10.933Z,30.00
2022-12-08T15:15:58.060Z,26.90
2022-12-08T15:18:40.701Z,26.53
2022-12-08T15:21:10.533Z,30.23
2022-12-08T15:23:48.451Z,32.97
2022-12-08T15:26:27.036Z,31.50
2022-12-08T15:28:55.387Z,27.40
2022-12-08T15:31:23.246Z,30.43
2022-12-08T15:33:50.335Z,38.57
2022-12-08T15:36:17.456Z,34.50
2022-12-08T15:38:44.463Z,27.90
2022-12-08T15:41:14.913Z,32.13
2022-12-08T15:43:44.457Z,38.70
2022-12-08T15:46:12.226Z,38.50
2022-12-08T15:48:39.478Z,60.20
2022-12-08T15:51:06.585Z,46.90
2022-12-08T15:53:36.346Z,31.13
2022-12-08T15:58:59.119Z,34.17
2022-12-08T16:01:31.633Z,33.17
2022-12-08T16:07:20.121Z,51.30
2022-12-08T16:09:43.924Z,42.17
2022-12-08T16:13:55.137Z,41.87
2022-12-08T16:15:55.236Z,37.40
2022-12-08T16:18:26.285Z,37.47
2022-12-08T16:23:44.947Z,35.67
2022-12-08T16:29:21.066Z,48.73
2022-12-08T16:31:51.089Z,42.97
2022-12-08T16:34:21.424Z,41.90
2022-12-08T16:36:55.709Z,36.90
2022-12-08T16:40:01.204Z,36.53
2022-12-08T16:42:41.053Z,47.33
2022-12-08T16:45:26.086Z,34.13
2022-12-08T16:48:08.868Z,37.57
2022-12-08T16:50:45.702Z,34.40
2022-12-08T16:53:13.626Z,40.23
2022-12-08T16:55:41.256Z,35.70
2022-12-08T16:58:08.351Z,32.97
2022-12-08T17:00:36.996Z,33.83
2022-12-08T17:03:10.488Z,31.20
2022-12-08T17:05:40.897Z,31.70
2022-12-08T17:08:07.932Z,32.40
2022-12-08T17:10:41.223Z,29.37
2022-12-08T17:13:10.995Z,29.40
2022-12-08T17:15:42.642Z,29.90
2022-12-08T17:18:09.894Z,47.77
2022-12-08T17:20:40.511Z,35.67
2022-12-08T17:23:08.980Z,35.57
2022-12-08T17:25:37.356Z,31.80
2022-12-08T17:28:08.249Z,32.20
2022-12-08T17:30:35.265Z,29.00
2022-12-08T17:33:04.956Z,58.17
2022-12-08T17:35:32.209Z,72.97
2022-12-08T17:37:59.362Z,79.10
2022-12-08T17:40:28.367Z,65.00
2022-12-08T17:42:56.329Z,30.43
2022-12-08T17:45:26.333Z,32.23
2022-12-08T17:47:53.413Z,26.77
2022-12-08T17:50:20.367Z,36.23
2022-12-08T17:52:52.172Z,34.83
2022-12-08T17:55:20.231Z,26.93
2022-12-08T17:57:47.180Z,27.10
2022-12-08T18:00:17.725Z,28.40
2022-12-08T18:02:44.706Z,30.20
2022-12-08T18:05:11.905Z,26.33
2022-12-08T18:07:38.919Z,35.90
2022-12-08T18:10:06.931Z,31.43
2022-12-08T18:12:34.048Z,25.97
2022-12-08T18:15:04.081Z,25.63
2022-12-08T18:17:31.244Z,32.70
2022-12-08T18:19:58.201Z,25.00
2022-12-08T18:22:28.769Z,29.53
2022-12-08T18:25:01.066Z,32.53
2022-12-08T18:27:29.083Z,31.63
2022-12-08T18:29:57.395Z,25.17
2022-12-08T18:32:24.538Z,27.80
2022-12-08T18:34:52.832Z,26.80
2022-12-08T18:37:20.244Z,29.43
2022-12-08T18:39:50.853Z,30.47
2022-12-08T18:42:26.527Z,26.43
2022-12-08T18:44:59.247Z,30.77
2022-12-08T18:47:26.436Z,30.10
2022-12-08T18:49:55.564Z,39.80
2022-12-08T18:52:31.737Z,23.80
2022-12-08T18:55:10.872Z,40.53
2022-12-08T18:57:43.464Z,38.97
2022-12-08T19:00:18.526Z,44.43
2022-12-08T19:02:49.177Z,26.77
2022-12-08T19:05:17.281Z,31.93
2022-12-08T19:07:48.716Z,30.20
2022-12-08T19:10:15.802Z,31.42
2022-12-08T19:12:43.064Z,33.50
2022-12-08T19:15:10.727Z,35.93
2022-12-08T19:17:37.759Z,32.87
2022-12-08T19:20:07.562Z,35.23
2022-12-08T19:22:37.018Z,28.00
2022-12-08T19:25:07.464Z,35.50
2022-12-08T19:27:36.276Z,42.00
2022-12-08T19:30:04.305Z,57.65
2022-12-08T19:32:31.574Z,31.03
2022-12-08T19:35:01.157Z,45.50
2022-12-08T19:37:35.580Z,46.77
2022-12-08T19:40:24.134Z,34.83
2022-12-08T19:43:13.849Z,43.58
2022-12-08T19:45:41.151Z,42.10
2022-12-08T19:48:11.571Z,35.25
2022-12-08T19:50:40.522Z,40.20
2022-12-08T19:53:15.579Z,41.50
2022-12-08T19:55:46.156Z,37.15
2022-12-08T19:58:13.318Z,30.47
2022-12-08T20:00:48.515Z,39.10
2022-12-08T20:03:24.515Z,30.97
2022-12-08T20:05:58.253Z,41.73
2022-12-08T20:08:26.379Z,29.50
2022-12-08T20:10:56.008Z,35.17
2022-12-08T20:13:44.695Z,28.33
2022-12-08T20:16:13.015Z,31.57
2022-12-08T20:18:42.351Z,27.83
2022-12-08T20:21:13.357Z,32.90
2022-12-08T20:23:44.292Z,26.03
2022-12-08T20:26:14.402Z,25.97
2022-12-08T20:28:42.534Z,31.00
2022-12-08T20:31:36.326Z,37.33
2022-12-08T20:34:03.426Z,25.75
2022-12-08T20:36:33.644Z,29.93
2022-12-08T20:39:00.956Z,30.00
2022-12-08T20:41:34.849Z,25.38
2022-12-08T20:44:08.113Z,26.70
2022-12-08T20:46:38.065Z,26.50
2022-12-08T20:49:14.623Z,40.73
2022-12-08T20:51:42.131Z,34.93
2022-12-08T20:54:11.136Z,29.47
2022-12-08T20:56:47.914Z,32.93
2022-12-08T20:59:21.353Z,32.40
2022-12-08T21:01:52.517Z,29.57
2022-12-08T21:04:22.293Z,32.60
2022-12-08T21:06:50.313Z,36.50
2022-12-08T21:09:20.578Z,35.70
2022-12-08T21:11:47.845Z,30.03
2022-12-08T21:14:14.896Z,30.70
2022-12-08T21:16:46.778Z,32.43
2022-12-08T21:19:16.315Z,32.17
2022-12-08T21:21:53.194Z,39.70
2022-12-08T21:24:33.669Z,32.20
2022-12-08T21:27:06.670Z,31.87
2022-12-08T21:29:41.432Z,45.97
2022-12-08T21:32:08.553Z,47.08
2022-12-08T21:34:36.163Z,34.25
2022-12-08T21:37:03.418Z,33.38
2022-12-08T21:39:36.507Z,33.95
2022-12-08T21:42:24.931Z,39.20
2022-12-08T21:44:54.262Z,31.50
2022-12-08T21:47:21.517Z,35.20
2022-12-08T21:49:51.507Z,33.67
2022-12-08T21:52:21.148Z,30.80
2022-12-08T21:54:48.266Z,26.42
2022-12-08T21:57:16.473Z,38.80
2022-12-08T21:59:47.836Z,25.70
2022-12-08T22:02:22.820Z,33.67
2022-12-08T22:04:52.493Z,29.00
2022-12-08T22:07:21.644Z,26.50
2022-12-08T22:09:51.179Z,30.90
2022-12-08T22:12:18.608Z,24.42
2022-12-08T22:14:49.953Z,30.48
2022-12-08T22:17:17.863Z,34.75
2022-12-08T22:19:47.926Z,29.40
2022-12-08T22:22:17.332Z,32.03
2022-12-08T22:24:48.295Z,26.33
2022-12-08T22:27:15.459Z,28.33
2022-12-08T22:29:44.890Z,27.60
2022-12-08T22:32:12.025Z,36.20
2022-12-08T22:34:39.141Z,39.25
2022-12-08T22:37:08.732Z,26.15
2022-12-08T22:39:36.553Z,27.27
2022-12-08T22:42:06.908Z,26.05
2022-12-08T22:44:34.159Z,31.38
2022-12-08T22:47:01.322Z,32.97
2022-12-08T22:49:29.021Z,33.35
2022-12-08T22:51:56.336Z,28.08
2022-12-08T22:54:23.424Z,33.35
2022-12-08T22:56:53.060Z,35.45
2022-12-08T22:59:20.045Z,31.25
2022-12-08T23:01:50.408Z,31.30
2022-12-08T23:04:19.993Z,29.00
2022-12-08T23:06:51.373Z,28.60
2022-12-08T23:09:18.678Z,32.17
2022-12-08T23:11:45.871Z,36.38
2022-12-08T23:14:20.833Z,39.67
2022-12-08T23:16:47.954Z,30.95
2022-12-08T23:19:14.936Z,32.17
2022-12-08T23:21:42.169Z,25.67
2022-12-08T23:24:11.329Z,28.00
2022-12-08T23:26:42.985Z,28.30
2022-12-08T23:29:12.419Z,30.67
2022-12-08T23:31:44.093Z,30.23
2022-12-08T23:34:15.920Z,26.58
2022-12-08T23:36:42.964Z,26.45
2022-12-08T23:39:11.781Z,30.73
2022-12-08T23:41:38.920Z,25.80
2022-12-08T23:44:19.921Z,25.55
2022-12-08T23:46:51.703Z,22.87
2022-12-08T23:49:23.541Z,22.50
2022-12-08T23:51:51.315Z,29.50
2022-12-08T23:54:21.110Z,23.23
2022-12-08T23:56:53.539Z,22.75
2022-12-08T23:59:20.856Z,24.60
